sensor_id;sensor_type;location;lat;lon;timestamp;P1;durP1;ratioP1;P2;durP2;ratioP2
27558;SDS011;15002;52.028;5.670;2023-09-19T00:02:16;6.05;;;1.60;;
27558;SDS011;15002;52.028;5.670;2023-09-19T00:04:42;5.90;;;1.50;;
27558;SDS011;15002;52.028;5.670;2023-09-19T00:07:08;7.65;;;1.67;;
27558;SDS011;15002;52.028;5.670;2023-09-19T00:09:36;3.05;;;1.33;;
27558;SDS011;15002;52.028;5.670;2023-09-19T00:12:05;4.90;;;1.60;;
27558;SDS011;15002;52.028;5.670;2023-09-19T00:14:31;7.55;;;1.88;;
27558;SDS011;15002;52.028;5.670;2023-09-19T00:17:01;4.03;;;1.50;;
27558;SDS011;15002;52.028;5.670;2023-09-19T00:19:36;4.90;;;1.77;;
27558;SDS011;15002;52.028;5.670;2023-09-19T00:22:07;4.32;;;1.80;;
27558;SDS011;15002;52.028;5.670;2023-09-19T00:24:33;6.13;;;2.00;;
27558;SDS011;15002;52.028;5.670;2023-09-19T00:26:59;6.97;;;1.88;;
27558;SDS011;15002;52.028;5.670;2023-09-19T00:29:25;9.15;;;2.15;;
27558;SDS011;15002;52.028;5.670;2023-09-19T00:31:54;8.02;;;1.90;;
27558;SDS011;15002;52.028;5.670;2023-09-19T00:34:22;7.50;;;1.80;;
27558;SDS011;15002;52.028;5.670;2023-09-19T00:36:47;4.32;;;1.90;;
27558;SDS011;15002;52.028;5.670;2023-09-19T00:39:13;7.75;;;2.30;;
27558;SDS011;15002;52.028;5.670;2023-09-19T00:41:39;6.82;;;1.73;;
27558;SDS011;15002;52.028;5.670;2023-09-19T00:44:05;9.93;;;2.03;;
27558;SDS011;15002;52.028;5.670;2023-09-19T00:46:31;6.57;;;1.92;;
27558;SDS011;15002;52.028;5.670;2023-09-19T00:48:57;6.22;;;1.80;;
27558;SDS011;15002;52.028;5.670;2023-09-19T00:51:24;8.65;;;2.13;;
27558;SDS011;15002;52.028;5.670;2023-09-19T00:53:51;10.07;;;1.63;;
27558;SDS011;15002;52.028;5.670;2023-09-19T00:56:17;9.13;;;2.00;;
27558;SDS011;15002;52.028;5.670;2023-09-19T00:58:45;5.93;;;1.92;;
27558;SDS011;15002;52.028;5.670;2023-09-19T01:01:11;7.47;;;2.05;;
27558;SDS011;15002;52.028;5.670;2023-09-19T01:03:39;6.97;;;1.85;;
27558;SDS011;15002;52.028;5.670;2023-09-19T01:06:06;6.25;;;1.90;;
27558;SDS011;15002;52.028;5.670;2023-09-19T01:08:33;8.77;;;2.30;;
27558;SDS011;15002;52.028;5.670;2023-09-19T01:14:02;9.27;;;2.40;;
27558;SDS011;15002;52.028;5.670;2023-09-19T01:16:49;8.90;;;2.50;;
27558;SDS011;15002;52.028;5.670;2023-09-19T01:30:37;7.18;;;2.40;;
27558;SDS011;15002;52.028;5.670;2023-09-19T01:33:08;11.57;;;2.53;;
27558;SDS011;15002;52.028;5.670;2023-09-19T01:35:37;10.02;;;2.53;;
27558;SDS011;15002;52.028;5.670;2023-09-19T01:38:04;9.77;;;2.95;;
27558;SDS011;15002;52.028;5.670;2023-09-19T01:40:32;5.28;;;2.28;;
27558;SDS011;15002;52.028;5.670;2023-09-19T01:43:12;11.27;;;2.55;;
27558;SDS011;15002;52.028;5.670;2023-09-19T01:46:08;9.60;;;2.42;;
27558;SDS011;15002;52.028;5.670;2023-09-19T01:51:35;11.40;;;2.53;;
27558;SDS011;15002;52.028;5.670;2023-09-19T01:54:11;14.50;;;2.53;;
27558;SDS011;15002;52.028;5.670;2023-09-19T01:57:26;13.20;;;2.70;;
27558;SDS011;15002;52.028;5.670;2023-09-19T02:00:13;14.25;;;2.53;;
27558;SDS011;15002;52.028;5.670;2023-09-19T02:02:43;12.70;;;2.63;;
27558;SDS011;15002;52.028;5.670;2023-09-19T02:05:12;7.72;;;2.30;;
27558;SDS011;15002;52.028;5.670;2023-09-19T02:07:38;9.30;;;2.67;;
27558;SDS011;15002;52.028;5.670;2023-09-19T02:10:06;11.65;;;2.05;;
27558;SDS011;15002;52.028;5.670;2023-09-19T02:12:32;10.38;;;1.83;;
27558;SDS011;15002;52.028;5.670;2023-09-19T02:15:00;13.77;;;2.33;;
27558;SDS011;15002;52.028;5.670;2023-09-19T02:17:26;12.77;;;2.70;;
27558;SDS011;15002;52.028;5.670;2023-09-19T02:19:52;12.05;;;2.40;;
27558;SDS011;15002;52.028;5.670;2023-09-19T02:22:18;14.63;;;2.67;;
27558;SDS011;15002;52.028;5.670;2023-09-19T02:24:44;10.15;;;2.28;;
27558;SDS011;15002;52.028;5.670;2023-09-19T02:27:13;12.27;;;3.20;;
27558;SDS011;15002;52.028;5.670;2023-09-19T02:29:40;14.32;;;2.42;;
27558;SDS011;15002;52.028;5.670;2023-09-19T02:32:09;14.88;;;2.63;;
27558;SDS011;15002;52.028;5.670;2023-09-19T02:34:35;13.02;;;2.28;;
27558;SDS011;15002;52.028;5.670;2023-09-19T02:37:07;12.07;;;2.25;;
27558;SDS011;15002;52.028;5.670;2023-09-19T02:39:36;6.70;;;1.90;;
27558;SDS011;15002;52.028;5.670;2023-09-19T02:42:02;12.02;;;2.53;;
27558;SDS011;15002;52.028;5.670;2023-09-19T02:44:29;13.20;;;2.05;;
27558;SDS011;15002;52.028;5.670;2023-09-19T02:46:55;8.45;;;2.00;;
27558;SDS011;15002;52.028;5.670;2023-09-19T02:49:22;11.25;;;1.95;;
27558;SDS011;15002;52.028;5.670;2023-09-19T02:51:48;12.13;;;2.22;;
27558;SDS011;15002;52.028;5.670;2023-09-19T02:54:14;14.02;;;2.38;;
27558;SDS011;15002;52.028;5.670;2023-09-19T02:56:40;11.10;;;2.58;;
27558;SDS011;15002;52.028;5.670;2023-09-19T02:59:06;12.75;;;2.35;;
27558;SDS011;15002;52.028;5.670;2023-09-19T03:01:32;11.80;;;2.42;;
27558;SDS011;15002;52.028;5.670;2023-09-19T03:03:58;10.50;;;2.22;;
27558;SDS011;15002;52.028;5.670;2023-09-19T03:06:24;10.27;;;1.85;;
27558;SDS011;15002;52.028;5.670;2023-09-19T03:08:50;10.30;;;2.97;;
27558;SDS011;15002;52.028;5.670;2023-09-19T03:11:17;12.75;;;2.17;;
27558;SDS011;15002;52.028;5.670;2023-09-19T03:13:50;11.05;;;2.30;;
27558;SDS011;15002;52.028;5.670;2023-09-19T03:16:16;10.68;;;2.30;;
27558;SDS011;15002;52.028;5.670;2023-09-19T03:18:41;7.82;;;2.00;;
27558;SDS011;15002;52.028;5.670;2023-09-19T03:21:08;15.38;;;2.65;;
27558;SDS011;15002;52.028;5.670;2023-09-19T03:23:33;12.40;;;2.13;;
27558;SDS011;15002;52.028;5.670;2023-09-19T03:25:59;12.60;;;2.10;;
27558;SDS011;15002;52.028;5.670;2023-09-19T03:28:25;13.30;;;2.53;;
27558;SDS011;15002;52.028;5.670;2023-09-19T03:31:00;19.10;;;3.50;;
27558;SDS011;15002;52.028;5.670;2023-09-19T03:33:27;11.82;;;2.38;;
27558;SDS011;15002;52.028;5.670;2023-09-19T03:35:53;11.70;;;2.40;;
27558;SDS011;15002;52.028;5.670;2023-09-19T03:38:19;9.20;;;2.17;;
27558;SDS011;15002;52.028;5.670;2023-09-19T03:40:46;10.90;;;2.25;;
27558;SDS011;15002;52.028;5.670;2023-09-19T03:43:12;13.10;;;2.20;;
27558;SDS011;15002;52.028;5.670;2023-09-19T03:45:38;9.88;;;2.08;;
27558;SDS011;15002;52.028;5.670;2023-09-19T03:48:08;11.77;;;2.13;;
27558;SDS011;15002;52.028;5.670;2023-09-19T03:50:35;12.40;;;2.60;;
27558;SDS011;15002;52.028;5.670;2023-09-19T03:53:01;10.90;;;2.15;;
27558;SDS011;15002;52.028;5.670;2023-09-19T03:55:27;13.50;;;2.33;;
27558;SDS011;15002;52.028;5.670;2023-09-19T03:57:53;7.20;;;1.90;;
27558;SDS011;15002;52.028;5.670;2023-09-19T04:00:18;6.30;;;1.90;;
27558;SDS011;15002;52.028;5.670;2023-09-19T04:02:47;7.28;;;2.10;;
27558;SDS011;15002;52.028;5.670;2023-09-19T04:05:13;9.80;;;1.70;;
27558;SDS011;15002;52.028;5.670;2023-09-19T04:07:39;14.23;;;2.30;;
27558;SDS011;15002;52.028;5.670;2023-09-19T04:10:05;8.73;;;1.98;;
27558;SDS011;15002;52.028;5.670;2023-09-19T04:12:33;12.90;;;1.85;;
27558;SDS011;15002;52.028;5.670;2023-09-19T04:14:59;14.23;;;2.45;;
27558;SDS011;15002;52.028;5.670;2023-09-19T04:17:24;13.00;;;2.40;;
27558;SDS011;15002;52.028;5.670;2023-09-19T04:19:50;10.25;;;2.05;;
27558;SDS011;15002;52.028;5.670;2023-09-19T04:22:16;11.75;;;1.98;;
27558;SDS011;15002;52.028;5.670;2023-09-19T04:24:42;5.93;;;2.40;;
27558;SDS011;15002;52.028;5.670;2023-09-19T04:27:08;9.00;;;2.15;;
27558;SDS011;15002;52.028;5.670;2023-09-19T04:29:34;9.15;;;2.40;;
27558;SDS011;15002;52.028;5.670;2023-09-19T04:32:00;7.80;;;2.13;;
27558;SDS011;15002;52.028;5.670;2023-09-19T04:34:29;7.70;;;1.75;;
27558;SDS011;15002;52.028;5.670;2023-09-19T04:36:55;13.35;;;2.50;;
27558;SDS011;15002;52.028;5.670;2023-09-19T04:39:23;8.52;;;2.13;;
27558;SDS011;15002;52.028;5.670;2023-09-19T04:41:51;9.88;;;2.22;;
27558;SDS011;15002;52.028;5.670;2023-09-19T04:44:17;11.82;;;2.58;;
27558;SDS011;15002;52.028;5.670;2023-09-19T04:46:43;9.95;;;2.10;;
27558;SDS011;15002;52.028;5.670;2023-09-19T04:49:11;9.38;;;2.33;;
27558;SDS011;15002;52.028;5.670;2023-09-19T04:51:37;8.88;;;2.20;;
27558;SDS011;15002;52.028;5.670;2023-09-19T04:54:03;10.85;;;2.03;;
27558;SDS011;15002;52.028;5.670;2023-09-19T04:56:29;9.60;;;2.05;;
27558;SDS011;15002;52.028;5.670;2023-09-19T04:58:56;11.23;;;1.73;;
27558;SDS011;15002;52.028;5.670;2023-09-19T05:01:23;7.57;;;2.30;;
27558;SDS011;15002;52.028;5.670;2023-09-19T05:03:49;13.63;;;2.10;;
27558;SDS011;15002;52.028;5.670;2023-09-19T05:06:19;13.20;;;2.35;;
27558;SDS011;15002;52.028;5.670;2023-09-19T05:08:48;9.85;;;2.10;;
27558;SDS011;15002;52.028;5.670;2023-09-19T05:11:20;7.68;;;2.25;;
27558;SDS011;15002;52.028;5.670;2023-09-19T05:13:48;16.42;;;2.30;;
27558;SDS011;15002;52.028;5.670;2023-09-19T05:16:20;12.38;;;2.10;;
27558;SDS011;15002;52.028;5.670;2023-09-19T05:18:47;11.93;;;2.00;;
27558;SDS011;15002;52.028;5.670;2023-09-19T05:21:12;8.82;;;2.17;;
27558;SDS011;15002;52.028;5.670;2023-09-19T05:23:38;11.25;;;2.50;;
27558;SDS011;15002;52.028;5.670;2023-09-19T05:26:03;11.02;;;2.10;;
27558;SDS011;15002;52.028;5.670;2023-09-19T05:28:30;13.40;;;2.58;;
27558;SDS011;15002;52.028;5.670;2023-09-19T05:30:57;10.90;;;2.28;;
27558;SDS011;15002;52.028;5.670;2023-09-19T05:35:56;10.45;;;3.50;;
27558;SDS011;15002;52.028;5.670;2023-09-19T05:38:21;7.90;;;2.80;;
27558;SDS011;15002;52.028;5.670;2023-09-19T05:40:47;7.35;;;2.10;;
27558;SDS011;15002;52.028;5.670;2023-09-19T05:43:13;12.20;;;2.33;;
27558;SDS011;15002;52.028;5.670;2023-09-19T05:45:41;11.27;;;2.40;;
27558;SDS011;15002;52.028;5.670;2023-09-19T05:48:11;7.80;;;2.17;;
27558;SDS011;15002;52.028;5.670;2023-09-19T05:50:39;7.80;;;2.10;;
27558;SDS011;15002;52.028;5.670;2023-09-19T05:53:05;9.85;;;1.83;;
27558;SDS011;15002;52.028;5.670;2023-09-19T05:55:31;9.40;;;1.88;;
27558;SDS011;15002;52.028;5.670;2023-09-19T05:57:58;13.20;;;2.00;;
27558;SDS011;15002;52.028;5.670;2023-09-19T06:00:24;11.30;;;2.15;;
27558;SDS011;15002;52.028;5.670;2023-09-19T06:02:54;7.72;;;1.95;;
27558;SDS011;15002;52.028;5.670;2023-09-19T06:05:22;14.80;;;2.03;;
27558;SDS011;15002;52.028;5.670;2023-09-19T06:07:51;8.57;;;2.40;;
27558;SDS011;15002;52.028;5.670;2023-09-19T06:10:18;10.32;;;2.30;;
27558;SDS011;15002;52.028;5.670;2023-09-19T06:12:45;7.63;;;1.92;;
27558;SDS011;15002;52.028;5.670;2023-09-19T06:15:12;8.82;;;2.20;;
27558;SDS011;15002;52.028;5.670;2023-09-19T06:17:53;11.85;;;2.22;;
27558;SDS011;15002;52.028;5.670;2023-09-19T06:20:24;11.85;;;2.30;;
27558;SDS011;15002;52.028;5.670;2023-09-19T06:22:51;5.40;;;1.98;;
27558;SDS011;15002;52.028;5.670;2023-09-19T06:25:17;11.73;;;1.90;;
27558;SDS011;15002;52.028;5.670;2023-09-19T06:27:55;10.90;;;1.88;;
27558;SDS011;15002;52.028;5.670;2023-09-19T06:30:22;11.98;;;2.40;;
27558;SDS011;15002;52.028;5.670;2023-09-19T06:32:55;10.70;;;2.08;;
27558;SDS011;15002;52.028;5.670;2023-09-19T06:35:25;9.13;;;2.42;;
27558;SDS011;15002;52.028;5.670;2023-09-19T06:37:52;9.68;;;1.60;;
27558;SDS011;15002;52.028;5.670;2023-09-19T06:40:18;8.63;;;2.08;;
27558;SDS011;15002;52.028;5.670;2023-09-19T06:42:45;8.98;;;2.00;;
27558;SDS011;15002;52.028;5.670;2023-09-19T06:45:15;5.93;;;1.70;;
27558;SDS011;15002;52.028;5.670;2023-09-19T06:47:47;9.98;;;1.83;;
27558;SDS011;15002;52.028;5.670;2023-09-19T06:50:17;8.73;;;1.77;;
27558;SDS011;15002;52.028;5.670;2023-09-19T06:52:43;11.65;;;2.25;;
27558;SDS011;15002;52.028;5.670;2023-09-19T06:55:10;10.25;;;1.98;;
27558;SDS011;15002;52.028;5.670;2023-09-19T06:57:38;7.40;;;1.98;;
27558;SDS011;15002;52.028;5.670;2023-09-19T07:00:08;10.45;;;2.22;;
27558;SDS011;15002;52.028;5.670;2023-09-19T07:05:39;9.63;;;2.22;;
27558;SDS011;15002;52.028;5.670;2023-09-19T07:08:06;5.05;;;1.98;;
27558;SDS011;15002;52.028;5.670;2023-09-19T07:10:33;13.15;;;2.53;;
27558;SDS011;15002;52.028;5.670;2023-09-19T07:12:59;9.15;;;2.33;;
27558;SDS011;15002;52.028;5.670;2023-09-19T07:15:30;9.10;;;1.93;;
27558;SDS011;15002;52.028;5.670;2023-09-19T07:18:04;5.75;;;1.63;;
27558;SDS011;15002;52.028;5.670;2023-09-19T07:20:30;6.07;;;1.63;;
27558;SDS011;15002;52.028;5.670;2023-09-19T07:22:57;8.60;;;2.08;;
27558;SDS011;15002;52.028;5.670;2023-09-19T07:25:26;8.15;;;1.95;;
27558;SDS011;15002;52.028;5.670;2023-09-19T07:27:54;10.90;;;1.58;;
27558;SDS011;15002;52.028;5.670;2023-09-19T07:30:20;10.30;;;2.20;;
27558;SDS011;15002;52.028;5.670;2023-09-19T07:32:46;12.20;;;2.13;;
27558;SDS011;15002;52.028;5.670;2023-09-19T07:35:12;9.35;;;2.03;;
27558;SDS011;15002;52.028;5.670;2023-09-19T07:37:37;13.00;;;2.40;;
27558;SDS011;15002;52.028;5.670;2023-09-19T07:40:03;9.65;;;2.13;;
27558;SDS011;15002;52.028;5.670;2023-09-19T07:42:34;8.95;;;2.20;;
27558;SDS011;15002;52.028;5.670;2023-09-19T07:45:04;9.30;;;2.00;;
27558;SDS011;15002;52.028;5.670;2023-09-19T07:47:30;10.10;;;2.08;;
27558;SDS011;15002;52.028;5.670;2023-09-19T07:49:57;12.65;;;2.22;;
27558;SDS011;15002;52.028;5.670;2023-09-19T07:52:24;8.88;;;2.45;;
27558;SDS011;15002;52.028;5.670;2023-09-19T07:54:49;11.50;;;2.55;;
27558;SDS011;15002;52.028;5.670;2023-09-19T07:57:15;12.93;;;2.20;;
27558;SDS011;15002;52.028;5.670;2023-09-19T07:59:41;10.95;;;2.50;;
27558;SDS011;15002;52.028;5.670;2023-09-19T08:02:08;11.88;;;2.30;;
27558;SDS011;15002;52.028;5.670;2023-09-19T08:04:40;14.15;;;2.10;;
27558;SDS011;15002;52.028;5.670;2023-09-19T08:07:11;11.93;;;2.35;;
27558;SDS011;15002;52.028;5.670;2023-09-19T08:09:38;15.38;;;2.30;;
27558;SDS011;15002;52.028;5.670;2023-09-19T08:12:04;11.10;;;2.28;;
27558;SDS011;15002;52.028;5.670;2023-09-19T08:14:35;11.88;;;2.35;;
27558;SDS011;15002;52.028;5.670;2023-09-19T08:17:01;13.35;;;2.17;;
27558;SDS011;15002;52.028;5.670;2023-09-19T08:19:27;14.75;;;2.10;;
27558;SDS011;15002;52.028;5.670;2023-09-19T08:21:57;7.47;;;1.60;;
27558;SDS011;15002;52.028;5.670;2023-09-19T08:24:29;13.73;;;2.10;;
27558;SDS011;15002;52.028;5.670;2023-09-19T08:26:55;9.32;;;1.95;;
27558;SDS011;15002;52.028;5.670;2023-09-19T08:29:22;15.30;;;2.90;;
27558;SDS011;15002;52.028;5.670;2023-09-19T08:31:57;10.07;;;2.13;;
27558;SDS011;15002;52.028;5.670;2023-09-19T08:34:23;11.70;;;2.58;;
27558;SDS011;15002;52.028;5.670;2023-09-19T08:36:53;8.27;;;2.33;;
27558;SDS011;15002;52.028;5.670;2023-09-19T08:39:23;7.20;;;1.77;;
27558;SDS011;15002;52.028;5.670;2023-09-19T08:41:49;17.60;;;2.25;;
27558;SDS011;15002;52.028;5.670;2023-09-19T08:44:22;12.45;;;2.00;;
27558;SDS011;15002;52.028;5.670;2023-09-19T08:46:47;9.52;;;2.38;;
27558;SDS011;15002;52.028;5.670;2023-09-19T08:49:19;14.05;;;2.08;;
27558;SDS011;15002;52.028;5.670;2023-09-19T08:55:04;13.20;;;2.90;;
27558;SDS011;15002;52.028;5.670;2023-09-19T08:57:33;16.77;;;2.67;;
27558;SDS011;15002;52.028;5.670;2023-09-19T09:00:02;11.35;;;2.17;;
27558;SDS011;15002;52.028;5.670;2023-09-19T09:02:39;7.90;;;2.65;;
27558;SDS011;15002;52.028;5.670;2023-09-19T09:05:08;8.73;;;1.90;;
27558;SDS011;15002;52.028;5.670;2023-09-19T09:07:39;14.27;;;2.25;;
27558;SDS011;15002;52.028;5.670;2023-09-19T09:10:06;10.07;;;2.00;;
27558;SDS011;15002;52.028;5.670;2023-09-19T09:12:32;8.85;;;1.95;;
27558;SDS011;15002;52.028;5.670;2023-09-19T09:15:01;11.77;;;2.67;;
27558;SDS011;15002;52.028;5.670;2023-09-19T09:17:29;8.90;;;2.45;;
27558;SDS011;15002;52.028;5.670;2023-09-19T09:19:55;10.07;;;2.40;;
27558;SDS011;15002;52.028;5.670;2023-09-19T09:22:21;10.63;;;2.70;;
27558;SDS011;15002;52.028;5.670;2023-09-19T09:27:26;6.82;;;1.85;;
27558;SDS011;15002;52.028;5.670;2023-09-19T09:29:52;16.40;;;2.65;;
27558;SDS011;15002;52.028;5.670;2023-09-19T09:32:20;9.27;;;2.17;;
27558;SDS011;15002;52.028;5.670;2023-09-19T09:34:54;16.77;;;2.22;;
27558;SDS011;15002;52.028;5.670;2023-09-19T09:37:21;10.35;;;2.00;;
27558;SDS011;15002;52.028;5.670;2023-09-19T09:39:53;11.48;;;2.40;;
27558;SDS011;15002;52.028;5.670;2023-09-19T09:42:34;11.57;;;2.25;;
27558;SDS011;15002;52.028;5.670;2023-09-19T09:47:45;11.20;;;2.10;;
27558;SDS011;15002;52.028;5.670;2023-09-19T09:50:37;12.65;;;2.85;;
27558;SDS011;15002;52.028;5.670;2023-09-19T09:53:21;6.38;;;1.85;;
27558;SDS011;15002;52.028;5.670;2023-09-19T09:58:34;8.38;;;2.33;;
27558;SDS011;15002;52.028;5.670;2023-09-19T10:01:01;11.70;;;2.17;;
27558;SDS011;15002;52.028;5.670;2023-09-19T10:03:36;11.25;;;2.30;;
27558;SDS011;15002;52.028;5.670;2023-09-19T10:06:12;12.75;;;2.60;;
27558;SDS011;15002;52.028;5.670;2023-09-19T10:11:48;10.68;;;2.60;;
27558;SDS011;15002;52.028;5.670;2023-09-19T10:14:30;10.95;;;1.98;;
27558;SDS011;15002;52.028;5.670;2023-09-19T10:16:59;13.10;;;2.17;;
27558;SDS011;15002;52.028;5.670;2023-09-19T10:19:29;10.50;;;2.10;;
27558;SDS011;15002;52.028;5.670;2023-09-19T10:22:02;12.32;;;2.30;;
27558;SDS011;15002;52.028;5.670;2023-09-19T10:24:30;10.65;;;2.00;;
27558;SDS011;15002;52.028;5.670;2023-09-19T10:27:01;13.27;;;2.05;;
27558;SDS011;15002;52.028;5.670;2023-09-19T10:29:29;9.75;;;1.85;;
27558;SDS011;15002;52.028;5.670;2023-09-19T10:32:01;13.15;;;2.17;;
27558;SDS011;15002;52.028;5.670;2023-09-19T10:34:30;8.75;;;1.77;;
27558;SDS011;15002;52.028;5.670;2023-09-19T10:37:01;11.93;;;2.03;;
27558;SDS011;15002;52.028;5.670;2023-09-19T10:39:31;9.38;;;1.88;;
27558;SDS011;15002;52.028;5.670;2023-09-19T10:41:57;11.50;;;2.10;;
27558;SDS011;15002;52.028;5.670;2023-09-19T10:44:31;7.63;;;1.98;;
27558;SDS011;15002;52.028;5.670;2023-09-19T10:46:58;5.65;;;2.15;;
27558;SDS011;15002;52.028;5.670;2023-09-19T10:49:24;8.02;;;2.35;;
27558;SDS011;15002;52.028;5.670;2023-09-19T10:51:54;9.30;;;2.30;;
27558;SDS011;15002;52.028;5.670;2023-09-19T10:54:26;15.82;;;2.50;;
27558;SDS011;15002;52.028;5.670;2023-09-19T10:57:02;7.82;;;1.65;;
27558;SDS011;15002;52.028;5.670;2023-09-19T10:59:30;10.57;;;1.80;;
27558;SDS011;15002;52.028;5.670;2023-09-19T11:01:59;8.48;;;2.08;;
27558;SDS011;15002;52.028;5.670;2023-09-19T11:04:40;7.93;;;2.20;;
27558;SDS011;15002;52.028;5.670;2023-09-19T11:07:09;9.18;;;2.13;;
27558;SDS011;15002;52.028;5.670;2023-09-19T11:09:55;9.45;;;2.28;;
27558;SDS011;15002;52.028;5.670;2023-09-19T11:15:05;4.55;;;1.63;;
27558;SDS011;15002;52.028;5.670;2023-09-19T11:17:39;10.82;;;2.10;;
27558;SDS011;15002;52.028;5.670;2023-09-19T11:23:23;9.38;;;2.00;;
27558;SDS011;15002;52.028;5.670;2023-09-19T11:25:47;3.72;;;1.45;;
27558;SDS011;15002;52.028;5.670;2023-09-19T11:30:50;7.03;;;1.77;;
27558;SDS011;15002;52.028;5.670;2023-09-19T11:33:21;10.32;;;1.70;;
27558;SDS011;15002;52.028;5.670;2023-09-19T11:43:45;6.38;;;1.60;;
27558;SDS011;15002;52.028;5.670;2023-09-19T11:46:12;7.38;;;2.00;;
27558;SDS011;15002;52.028;5.670;2023-09-19T11:48:41;11.63;;;2.55;;
27558;SDS011;15002;52.028;5.670;2023-09-19T11:51:12;5.82;;;1.52;;
27558;SDS011;15002;52.028;5.670;2023-09-19T11:53:47;6.63;;;1.50;;
27558;SDS011;15002;52.028;5.670;2023-09-19T11:56:15;6.20;;;1.90;;
27558;SDS011;15002;52.028;5.670;2023-09-19T11:58:42;4.75;;;1.05;;
27558;SDS011;15002;52.028;5.670;2023-09-19T12:01:13;10.15;;;2.05;;
27558;SDS011;15002;52.028;5.670;2023-09-19T12:03:45;5.90;;;2.00;;
27558;SDS011;15002;52.028;5.670;2023-09-19T12:06:14;5.55;;;1.50;;
27558;SDS011;15002;52.028;5.670;2023-09-19T12:08:41;9.82;;;3.38;;
27558;SDS011;15002;52.028;5.670;2023-09-19T12:11:14;5.82;;;1.25;;
27558;SDS011;15002;52.028;5.670;2023-09-19T12:13:45;5.57;;;1.30;;
27558;SDS011;15002;52.028;5.670;2023-09-19T12:16:18;8.50;;;1.20;;
27558;SDS011;15002;52.028;5.670;2023-09-19T12:18:48;6.35;;;1.38;;
27558;SDS011;15002;52.028;5.670;2023-09-19T12:26:42;8.38;;;1.40;;
27558;SDS011;15002;52.028;5.670;2023-09-19T12:29:11;5.13;;;1.08;;
27558;SDS011;15002;52.028;5.670;2023-09-19T12:31:48;5.57;;;1.00;;
27558;SDS011;15002;52.028;5.670;2023-09-19T12:34:22;11.35;;;1.20;;
27558;SDS011;15002;52.028;5.670;2023-09-19T12:39:40;6.00;;;1.20;;
27558;SDS011;15002;52.028;5.670;2023-09-19T12:42:20;5.53;;;1.10;;
27558;SDS011;15002;52.028;5.670;2023-09-19T12:44:56;4.88;;;1.00;;
27558;SDS011;15002;52.028;5.670;2023-09-19T12:47:25;7.18;;;1.02;;
27558;SDS011;15002;52.028;5.670;2023-09-19T12:52:38;5.72;;;1.52;;
27558;SDS011;15002;52.028;5.670;2023-09-19T12:55:26;7.32;;;1.25;;
27558;SDS011;15002;52.028;5.670;2023-09-19T13:00:21;4.95;;;1.45;;
27558;SDS011;15002;52.028;5.670;2023-09-19T13:03:09;5.90;;;0.93;;
27558;SDS011;15002;52.028;5.670;2023-09-19T13:05:57;2.08;;;1.08;;
27558;SDS011;15002;52.028;5.670;2023-09-19T13:08:32;5.57;;;1.10;;
27558;SDS011;15002;52.028;5.670;2023-09-19T13:11:06;5.20;;;0.80;;
27558;SDS011;15002;52.028;5.670;2023-09-19T13:16:19;5.53;;;1.73;;
27558;SDS011;15002;52.028;5.670;2023-09-19T13:21:26;7.50;;;1.05;;
27558;SDS011;15002;52.028;5.670;2023-09-19T13:27:05;5.13;;;1.15;;
27558;SDS011;15002;52.028;5.670;2023-09-19T13:29:31;3.35;;;1.20;;
27558;SDS011;15002;52.028;5.670;2023-09-19T13:31:57;4.15;;;1.00;;
27558;SDS011;15002;52.028;5.670;2023-09-19T13:34:23;6.75;;;1.30;;
27558;SDS011;15002;52.028;5.670;2023-09-19T13:36:49;4.57;;;1.15;;
27558;SDS011;15002;52.028;5.670;2023-09-19T13:39:15;4.70;;;1.10;;
27558;SDS011;15002;52.028;5.670;2023-09-19T13:41:42;6.68;;;1.45;;
27558;SDS011;15002;52.028;5.670;2023-09-19T13:44:10;8.05;;;1.35;;
27558;SDS011;15002;52.028;5.670;2023-09-19T13:46:36;3.88;;;1.20;;
27558;SDS011;15002;52.028;5.670;2023-09-19T13:49:02;4.20;;;1.13;;
27558;SDS011;15002;52.028;5.670;2023-09-19T13:51:30;4.85;;;0.90;;
27558;SDS011;15002;52.028;5.670;2023-09-19T13:53:56;6.72;;;1.10;;
27558;SDS011;15002;52.028;5.670;2023-09-19T13:56:22;3.90;;;1.20;;
27558;SDS011;15002;52.028;5.670;2023-09-19T13:58:58;2.85;;;0.95;;
27558;SDS011;15002;52.028;5.670;2023-09-19T14:01:24;4.47;;;0.90;;
27558;SDS011;15002;52.028;5.670;2023-09-19T14:03:51;2.78;;;1.30;;
27558;SDS011;15002;52.028;5.670;2023-09-19T14:06:19;4.35;;;0.70;;
27558;SDS011;15002;52.028;5.670;2023-09-19T14:08:44;3.17;;;0.60;;
27558;SDS011;15002;52.028;5.670;2023-09-19T14:11:15;3.20;;;0.80;;
27558;SDS011;15002;52.028;5.670;2023-09-19T14:13:41;4.22;;;1.00;;
27558;SDS011;15002;52.028;5.670;2023-09-19T14:16:11;4.95;;;1.05;;
27558;SDS011;15002;52.028;5.670;2023-09-19T14:18:37;2.60;;;0.88;;
27558;SDS011;15002;52.028;5.670;2023-09-19T14:21:03;2.10;;;0.90;;
27558;SDS011;15002;52.028;5.670;2023-09-19T14:23:34;5.25;;;1.40;;
27558;SDS011;15002;52.028;5.670;2023-09-19T14:26:03;7.72;;;1.15;;
27558;SDS011;15002;52.028;5.670;2023-09-19T14:28:30;5.80;;;1.10;;
27558;SDS011;15002;52.028;5.670;2023-09-19T14:31:03;5.88;;;0.75;;
27558;SDS011;15002;52.028;5.670;2023-09-19T14:33:30;3.38;;;1.00;;
27558;SDS011;15002;52.028;5.670;2023-09-19T14:35:56;3.92;;;0.75;;
27558;SDS011;15002;52.028;5.670;2023-09-19T14:38:22;4.30;;;1.00;;
27558;SDS011;15002;52.028;5.670;2023-09-19T14:40:47;4.80;;;1.30;;
27558;SDS011;15002;52.028;5.670;2023-09-19T14:43:15;3.92;;;1.08;;
27558;SDS011;15002;52.028;5.670;2023-09-19T14:45:40;4.57;;;1.20;;
27558;SDS011;15002;52.028;5.670;2023-09-19T14:48:06;3.97;;;1.02;;
27558;SDS011;15002;52.028;5.670;2023-09-19T14:50:32;4.75;;;0.90;;
27558;SDS011;15002;52.028;5.670;2023-09-19T14:52:58;6.75;;;1.33;;
27558;SDS011;15002;52.028;5.670;2023-09-19T14:55:26;3.50;;;0.85;;
27558;SDS011;15002;52.028;5.670;2023-09-19T14:57:54;3.50;;;1.40;;
27558;SDS011;15002;52.028;5.670;2023-09-19T15:00:22;7.03;;;1.20;;
27558;SDS011;15002;52.028;5.670;2023-09-19T15:02:48;3.67;;;1.20;;
27558;SDS011;15002;52.028;5.670;2023-09-19T15:05:15;4.25;;;1.00;;
27558;SDS011;15002;52.028;5.670;2023-09-19T15:07:41;7.85;;;1.40;;
27558;SDS011;15002;52.028;5.670;2023-09-19T15:10:07;5.00;;;1.55;;
27558;SDS011;15002;52.028;5.670;2023-09-19T15:12:35;6.15;;;1.23;;
27558;SDS011;15002;52.028;5.670;2023-09-19T15:15:02;6.28;;;1.10;;
27558;SDS011;15002;52.028;5.670;2023-09-19T15:17:35;4.97;;;1.25;;
27558;SDS011;15002;52.028;5.670;2023-09-19T15:20:01;3.85;;;1.33;;
27558;SDS011;15002;52.028;5.670;2023-09-19T15:22:27;4.22;;;0.98;;
27558;SDS011;15002;52.028;5.670;2023-09-19T15:24:53;3.22;;;1.15;;
27558;SDS011;15002;52.028;5.670;2023-09-19T15:27:18;2.58;;;1.17;;
27558;SDS011;15002;52.028;5.670;2023-09-19T15:29:45;2.22;;;1.20;;
27558;SDS011;15002;52.028;5.670;2023-09-19T15:32:11;4.90;;;1.50;;
27558;SDS011;15002;52.028;5.670;2023-09-19T15:34:36;4.57;;;1.00;;
27558;SDS011;15002;52.028;5.670;2023-09-19T15:37:02;2.90;;;1.17;;
27558;SDS011;15002;52.028;5.670;2023-09-19T15:39:31;3.88;;;1.10;;
27558;SDS011;15002;52.028;5.670;2023-09-19T15:41:59;3.35;;;1.10;;
27558;SDS011;15002;52.028;5.670;2023-09-19T15:44:25;5.47;;;1.15;;
27558;SDS011;15002;52.028;5.670;2023-09-19T15:46:53;5.45;;;1.38;;
27558;SDS011;15002;52.028;5.670;2023-09-19T15:49:19;6.35;;;1.50;;
27558;SDS011;15002;52.028;5.670;2023-09-19T15:51:45;5.25;;;1.30;;
27558;SDS011;15002;52.028;5.670;2023-09-19T15:54:12;5.13;;;1.30;;
27558;SDS011;15002;52.028;5.670;2023-09-19T15:56:39;10.30;;;1.50;;
27558;SDS011;15002;52.028;5.670;2023-09-19T15:59:08;6.07;;;1.27;;
27558;SDS011;15002;52.028;5.670;2023-09-19T16:01:37;4.78;;;1.75;;
27558;SDS011;15002;52.028;5.670;2023-09-19T16:04:05;5.50;;;1.55;;
27558;SDS011;15002;52.028;5.670;2023-09-19T16:06:34;4.22;;;1.55;;
27558;SDS011;15002;52.028;5.670;2023-09-19T16:09:01;5.97;;;1.73;;